sensor_id;sensor_type;location;lat;lon;timestamp;pressure;altitude;pressure_sealevel;temperature;humidity
86330;BME280;76985;51.042;13.978;2024-03-07T00:00:12;99801.44;;;3.56;88.83
86330;BME280;76985;51.042;13.978;2024-03-07T00:02:50;99814.50;;;3.56;88.80
86330;BME280;76985;51.042;13.978;2024-03-07T00:05:19;99812.22;;;3.53;88.89
86330;BME280;76985;51.042;13.978;2024-03-07T00:07:45;99810.56;;;3.52;90.26
86330;BME280;76985;51.042;13.978;2024-03-07T00:10:12;99809.63;;;3.53;90.10
86330;BME280;76985;51.042;13.978;2024-03-07T00:12:39;99820.44;;;3.66;89.22
86330;BME280;76985;51.042;13.978;2024-03-07T00:15:10;99810.09;;;3.56;89.57
86330;BME280;76985;51.042;13.978;2024-03-07T00:17:37;99807.19;;;3.59;90.13
86330;BME280;76985;51.042;13.978;2024-03-07T00:20:04;99816.72;;;3.77;89.99
86330;BME280;76985;51.042;13.978;2024-03-07T00:22:38;99807.94;;;3.78;89.85
86330;BME280;76985;51.042;13.978;2024-03-07T00:25:04;99798.06;;;3.63;89.79
86330;BME280;76985;51.042;13.978;2024-03-07T00:27:38;99800.19;;;3.68;89.76
86330;BME280;76985;51.042;13.978;2024-03-07T00:30:05;99810.13;;;3.64;89.92
86330;BME280;76985;51.042;13.978;2024-03-07T00:32:34;99799.22;;;3.69;90.35
86330;BME280;76985;51.042;13.978;2024-03-07T00:35:06;99795.31;;;3.73;90.38
86330;BME280;76985;51.042;13.978;2024-03-07T00:37:32;99793.69;;;3.72;91.35
86330;BME280;76985;51.042;13.978;2024-03-07T00:39:58;99795.22;;;3.83;90.82
86330;BME280;76985;51.042;13.978;2024-03-07T00:42:25;99797.97;;;3.81;90.33
86330;BME280;76985;51.042;13.978;2024-03-07T00:44:53;99793.72;;;3.80;90.63
86330;BME280;76985;51.042;13.978;2024-03-07T00:47:19;99806.97;;;3.87;90.95
86330;BME280;76985;51.042;13.978;2024-03-07T00:49:45;99802.09;;;3.92;90.82
86330;BME280;76985;51.042;13.978;2024-03-07T00:52:15;99798.41;;;4.11;89.82
86330;BME280;76985;51.042;13.978;2024-03-07T00:54:42;99796.09;;;4.08;90.05
86330;BME280;76985;51.042;13.978;2024-03-07T00:57:08;99782.19;;;3.91;90.65
86330;BME280;76985;51.042;13.978;2024-03-07T00:59:35;99785.94;;;3.96;90.10
86330;BME280;76985;51.042;13.978;2024-03-07T01:02:02;99777.81;;;3.99;90.13
86330;BME280;76985;51.042;13.978;2024-03-07T01:04:28;99776.50;;;3.95;90.01
86330;BME280;76985;51.042;13.978;2024-03-07T01:06:59;99776.81;;;3.92;90.45
86330;BME280;76985;51.042;13.978;2024-03-07T01:09:26;99781.41;;;3.98;89.79
86330;BME280;76985;51.042;13.978;2024-03-07T01:11:54;99783.53;;;4.03;90.02
86330;BME280;76985;51.042;13.978;2024-03-07T01:14:21;99779.13;;;4.04;90.03
86330;BME280;76985;51.042;13.978;2024-03-07T01:16:48;99781.41;;;3.98;90.04
86330;BME280;76985;51.042;13.978;2024-03-07T01:19:14;99775.97;;;3.92;90.53
86330;BME280;76985;51.042;13.978;2024-03-07T01:21:40;99778.13;;;4.05;90.80
86330;BME280;76985;51.042;13.978;2024-03-07T01:24:06;99771.28;;;4.04;90.09
86330;BME280;76985;51.042;13.978;2024-03-07T01:26:33;99784.03;;;4.07;90.52
86330;BME280;76985;51.042;13.978;2024-03-07T01:28:59;99774.84;;;3.94;89.75
86330;BME280;76985;51.042;13.978;2024-03-07T01:31:25;99763.75;;;3.92;90.13
86330;BME280;76985;51.042;13.978;2024-03-07T01:33:52;99774.72;;;4.04;90.59
86330;BME280;76985;51.042;13.978;2024-03-07T01:36:19;99771.78;;;4.07;90.17
86330;BME280;76985;51.042;13.978;2024-03-07T01:38:46;99775.84;;;4.02;90.91
86330;BME280;76985;51.042;13.978;2024-03-07T01:41:12;99773.91;;;4.04;90.42
86330;BME280;76985;51.042;13.978;2024-03-07T01:43:41;99774.91;;;4.11;89.78
86330;BME280;76985;51.042;13.978;2024-03-07T01:46:07;99771.78;;;4.07;90.13
86330;BME280;76985;51.042;13.978;2024-03-07T01:48:34;99744.84;;;3.98;90.00
86330;BME280;76985;51.042;13.978;2024-03-07T01:51:00;99768.69;;;4.12;90.50
86330;BME280;76985;51.042;13.978;2024-03-07T01:53:27;99763.16;;;4.15;90.68
86330;BME280;76985;51.042;13.978;2024-03-07T01:55:56;99769.03;;;4.17;89.76
86330;BME280;76985;51.042;13.978;2024-03-07T01:58:24;99767.41;;;4.16;89.93
86330;BME280;76985;51.042;13.978;2024-03-07T02:00:50;99769.84;;;4.17;90.53
86330;BME280;76985;51.042;13.978;2024-03-07T02:03:16;99764.78;;;4.16;90.21
86330;BME280;76985;51.042;13.978;2024-03-07T02:05:43;99772.28;;;4.27;90.01
86330;BME280;76985;51.042;13.978;2024-03-07T02:08:09;99769.34;;;4.30;90.31
86330;BME280;76985;51.042;13.978;2024-03-07T02:10:35;99761.53;;;4.30;89.47
86330;BME280;76985;51.042;13.978;2024-03-07T02:13:01;99758.59;;;4.33;88.17
86330;BME280;76985;51.042;13.978;2024-03-07T02:15:27;99744.22;;;4.21;88.07
86330;BME280;76985;51.042;13.978;2024-03-07T02:17:53;99752.72;;;4.23;87.80
86330;BME280;76985;51.042;13.978;2024-03-07T02:20:19;99750.59;;;4.35;88.38
86330;BME280;76985;51.042;13.978;2024-03-07T02:22:46;99757.47;;;4.36;87.79
86330;BME280;76985;51.042;13.978;2024-03-07T02:25:12;99751.75;;;4.32;87.67
86330;BME280;76985;51.042;13.978;2024-03-07T02:27:38;99754.84;;;4.19;87.29
86330;BME280;76985;51.042;13.978;2024-03-07T02:30:05;99752.72;;;4.23;86.54
86330;BME280;76985;51.042;13.978;2024-03-07T02:32:37;99757.78;;;4.24;87.54
86330;BME280;76985;51.042;13.978;2024-03-07T02:35:04;99750.25;;;4.21;87.85
86330;BME280;76985;51.042;13.978;2024-03-07T02:37:31;99754.19;;;4.26;88.03
86330;BME280;76985;51.042;13.978;2024-03-07T02:39:57;99748.13;;;4.17;87.75
86330;BME280;76985;51.042;13.978;2024-03-07T02:42:23;99748.78;;;4.11;87.37
86330;BME280;76985;51.042;13.978;2024-03-07T02:44:49;99750.22;;;4.05;88.55
86330;BME280;76985;51.042;13.978;2024-03-07T02:47:15;99746.81;;;4.05;89.22
86330;BME280;76985;51.042;13.978;2024-03-07T02:49:41;99760.69;;;4.13;89.52
86330;BME280;76985;51.042;13.978;2024-03-07T02:52:07;99734.44;;;4.07;88.66
86330;BME280;76985;51.042;13.978;2024-03-07T02:54:34;99744.03;;;4.14;88.66
86330;BME280;76985;51.042;13.978;2024-03-07T02:57:01;99745.19;;;4.12;89.10
86330;BME280;76985;51.042;13.978;2024-03-07T02:59:27;99734.56;;;4.05;89.78
86330;BME280;76985;51.042;13.978;2024-03-07T03:01:53;99728.53;;;4.05;88.94
86330;BME280;76985;51.042;13.978;2024-03-07T03:04:19;99746.81;;;4.05;88.75
86330;BME280;76985;51.042;13.978;2024-03-07T03:06:45;99751.38;;;4.03;88.71
86330;BME280;76985;51.042;13.978;2024-03-07T03:09:12;99728.69;;;3.95;88.61
86330;BME280;76985;51.042;13.978;2024-03-07T03:11:46;99738.31;;;3.94;88.40
86330;BME280;76985;51.042;13.978;2024-03-07T03:14:13;99746.97;;;3.95;88.62
86330;BME280;76985;51.042;13.978;2024-03-07T03:16:42;99732.09;;;3.87;89.14
86330;BME280;76985;51.042;13.978;2024-03-07T03:19:11;99747.78;;;3.95;89.03
86330;BME280;76985;51.042;13.978;2024-03-07T03:21:37;99733.72;;;3.88;88.96
86330;BME280;76985;51.042;13.978;2024-03-07T03:24:04;99739.75;;;3.89;89.18
86330;BME280;76985;51.042;13.978;2024-03-07T03:26:30;99728.00;;;3.85;89.15
86330;BME280;76985;51.042;13.978;2024-03-07T03:28:57;99733.91;;;3.95;89.08
86330;BME280;76985;51.042;13.978;2024-03-07T03:31:24;99732.94;;;4.04;88.34
86330;BME280;76985;51.042;13.978;2024-03-07T03:33:50;99737.66;;;4.01;88.74
86330;BME280;76985;51.042;13.978;2024-03-07T03:36:17;99729.31;;;3.97;88.71
86330;BME280;76985;51.042;13.978;2024-03-07T03:38:44;99733.09;;;4.03;88.15
86330;BME280;76985;51.042;13.978;2024-03-07T03:41:15;99745.81;;;4.06;88.04
86330;BME280;76985;51.042;13.978;2024-03-07T03:43:42;99724.78;;;3.99;88.32
86330;BME280;76985;51.042;13.978;2024-03-07T03:46:12;99732.94;;;4.04;87.07
86330;BME280;76985;51.042;13.978;2024-03-07T03:48:39;99734.44;;;4.07;87.49
86330;BME280;76985;51.042;13.978;2024-03-07T03:51:09;99730.97;;;4.06;88.04
86330;BME280;76985;51.042;13.978;2024-03-07T03:53:36;99740.28;;;4.09;87.32
86330;BME280;76985;51.042;13.978;2024-03-07T03:56:03;99720.84;;;3.95;87.74
86330;BME280;76985;51.042;13.978;2024-03-07T03:58:32;99738.66;;;3.99;87.63
86330;BME280;76985;51.042;13.978;2024-03-07T04:00:58;99743.69;;;3.93;86.88
86330;BME280;76985;51.042;13.978;2024-03-07T04:03:26;99737.13;;;3.81;87.53
86330;BME280;76985;51.042;13.978;2024-03-07T04:05:53;99735.50;;;3.80;86.49
86330;BME280;76985;51.042;13.978;2024-03-07T04:08:19;99725.34;;;3.68;86.57
86330;BME280;76985;51.042;13.978;2024-03-07T04:10:46;99741.81;;;3.69;87.51
86330;BME280;76985;51.042;13.978;2024-03-07T04:13:12;99729.22;;;3.56;86.82
86330;BME280;76985;51.042;13.978;2024-03-07T04:15:39;99744.41;;;3.53;86.63
86330;BME280;76985;51.042;13.978;2024-03-07T04:18:06;99719.72;;;3.39;88.06
86330;BME280;76985;51.042;13.978;2024-03-07T04:20:33;99726.38;;;3.33;87.70
86330;BME280;76985;51.042;13.978;2024-03-07T04:22:59;99735.22;;;3.40;87.39
86330;BME280;76985;51.042;13.978;2024-03-07T04:25:25;99738.28;;;3.36;86.86
86330;BME280;76985;51.042;13.978;2024-03-07T04:27:51;99740.66;;;3.21;87.15
86330;BME280;76985;51.042;13.978;2024-03-07T04:30:17;99739.34;;;3.17;86.93
86330;BME280;76985;51.042;13.978;2024-03-07T04:32:43;99724.47;;;3.09;86.75
86330;BME280;76985;51.042;13.978;2024-03-07T04:35:09;99725.97;;;3.12;86.68
86330;BME280;76985;51.042;13.978;2024-03-07T04:37:37;99722.63;;;3.02;87.17
86330;BME280;76985;51.042;13.978;2024-03-07T04:40:05;99728.66;;;3.02;87.63
86330;BME280;76985;51.042;13.978;2024-03-07T04:42:44;99737.28;;;3.03;87.02
86330;BME280;76985;51.042;13.978;2024-03-07T04:45:12;99746.41;;;2.98;86.48
86330;BME280;76985;51.042;13.978;2024-03-07T04:47:42;99748.00;;;2.91;87.41
86330;BME280;76985;51.042;13.978;2024-03-07T04:50:10;99743.72;;;2.82;87.52
86330;BME280;76985;51.042;13.978;2024-03-07T04:52:37;99743.66;;;2.74;86.68
86330;BME280;76985;51.042;13.978;2024-03-07T04:55:05;99749.06;;;2.81;85.90
86330;BME280;76985;51.042;13.978;2024-03-07T04:57:38;99753.84;;;2.67;85.45
86330;BME280;76985;51.042;13.978;2024-03-07T05:00:10;99759.22;;;2.66;85.07
86330;BME280;76985;51.042;13.978;2024-03-07T05:02:41;99760.50;;;2.62;85.99
86330;BME280;76985;51.042;13.978;2024-03-07T05:05:07;99757.44;;;2.48;85.86
86330;BME280;76985;51.042;13.978;2024-03-07T05:07:33;99763.34;;;2.51;85.22
86330;BME280;76985;51.042;13.978;2024-03-07T05:10:03;99748.75;;;2.40;85.70
86330;BME280;76985;51.042;13.978;2024-03-07T05:12:31;99761.88;;;2.30;85.94
86330;BME280;76985;51.042;13.978;2024-03-07T05:14:57;99750.84;;;2.18;85.71
86330;BME280;76985;51.042;13.978;2024-03-07T05:17:23;99756.59;;;2.22;86.42
86330;BME280;76985;51.042;13.978;2024-03-07T05:19:49;99763.13;;;2.08;86.33
86330;BME280;76985;51.042;13.978;2024-03-07T05:22:15;99753.75;;;1.97;87.13
86330;BME280;76985;51.042;13.978;2024-03-07T05:24:42;99755.81;;;1.94;86.49
86330;BME280;76985;51.042;13.978;2024-03-07T05:27:10;99769.63;;;1.94;87.16
86330;BME280;76985;51.042;13.978;2024-03-07T05:29:40;99775.81;;;1.93;87.01
86330;BME280;76985;51.042;13.978;2024-03-07T05:32:20;99770.09;;;1.90;86.98
86330;BME280;76985;51.042;13.978;2024-03-07T05:34:47;99773.09;;;1.95;86.72
86330;BME280;76985;51.042;13.978;2024-03-07T05:37:13;99757.53;;;1.85;87.59
86330;BME280;76985;51.042;13.978;2024-03-07T05:39:39;99755.06;;;1.84;87.08
86330;BME280;76985;51.042;13.978;2024-03-07T05:42:05;99774.09;;;1.84;87.10
86330;BME280;76985;51.042;13.978;2024-03-07T05:44:33;99765.22;;;1.77;86.77
86330;BME280;76985;51.042;13.978;2024-03-07T05:46:59;99768.22;;;1.82;86.59
86330;BME280;76985;51.042;13.978;2024-03-07T05:49:25;99762.19;;;1.82;86.28
86330;BME280;76985;51.042;13.978;2024-03-07T05:51:51;99781.47;;;1.89;86.71
86330;BME280;76985;51.042;13.978;2024-03-07T05:54:17;99769.44;;;1.88;87.26
86330;BME280;76985;51.042;13.978;2024-03-07T05:56:43;99770.31;;;1.96;87.03
86330;BME280;76985;51.042;13.978;2024-03-07T05:59:09;99776.59;;;2.04;86.78
86330;BME280;76985;51.042;13.978;2024-03-07T06:01:36;99769.44;;;2.06;87.39
86330;BME280;76985;51.042;13.978;2024-03-07T06:04:04;99778.44;;;2.11;87.31
86330;BME280;76985;51.042;13.978;2024-03-07T06:06:33;99787.16;;;2.20;87.19
86330;BME280;76985;51.042;13.978;2024-03-07T06:09:01;99764.03;;;2.17;86.76
86330;BME280;76985;51.042;13.978;2024-03-07T06:11:37;99785.59;;;2.27;86.38
86330;BME280;76985;51.042;13.978;2024-03-07T06:14:04;99787.28;;;2.36;86.20
86330;BME280;76985;51.042;13.978;2024-03-07T06:16:36;99778.09;;;2.24;86.40
86330;BME280;76985;51.042;13.978;2024-03-07T06:19:03;99781.06;;;2.29;87.27
86330;BME280;76985;51.042;13.978;2024-03-07T06:21:30;99790.13;;;2.43;86.59
86330;BME280;76985;51.042;13.978;2024-03-07T06:23:57;99779.72;;;2.43;86.30
86330;BME280;76985;51.042;13.978;2024-03-07T06:26:31;99779.88;;;2.41;86.43
86330;BME280;76985;51.042;13.978;2024-03-07T06:29:04;99795.94;;;2.55;85.31
86330;BME280;76985;51.042;13.978;2024-03-07T06:31:33;99798.38;;;2.56;85.95
86330;BME280;76985;51.042;13.978;2024-03-07T06:34:00;99789.31;;;2.42;85.83
86330;BME280;76985;51.042;13.978;2024-03-07T06:36:26;99799.50;;;2.54;85.36
86330;BME280;76985;51.042;13.978;2024-03-07T06:38:54;99794.75;;;2.49;84.80
86330;BME280;76985;51.042;13.978;2024-03-07T06:41:20;99794.34;;;2.44;84.01
86330;BME280;76985;51.042;13.978;2024-03-07T06:43:46;99795.56;;;2.49;83.74
86330;BME280;76985;51.042;13.978;2024-03-07T06:46:12;99789.47;;;2.41;85.26
86330;BME280;76985;51.042;13.978;2024-03-07T06:48:39;99801.06;;;2.46;84.39
86330;BME280;76985;51.042;13.978;2024-03-07T06:51:06;99804.84;;;2.52;83.90
86330;BME280;76985;51.042;13.978;2024-03-07T06:53:33;99792.94;;;2.32;83.86
86330;BME280;76985;51.042;13.978;2024-03-07T06:55:59;99797.66;;;2.28;84.56
86330;BME280;76985;51.042;13.978;2024-03-07T06:58:25;99805.22;;;2.21;84.36
86330;BME280;76985;51.042;13.978;2024-03-07T07:00:52;99797.63;;;2.10;85.47
86330;BME280;76985;51.042;13.978;2024-03-07T07:03:20;99803.06;;;2.17;84.83
86330;BME280;76985;51.042;13.978;2024-03-07T07:05:48;99809.00;;;2.27;85.37
86330;BME280;76985;51.042;13.978;2024-03-07T07:08:14;99800.31;;;2.36;84.24
86330;BME280;76985;51.042;13.978;2024-03-07T07:10:40;99819.13;;;2.48;84.40
86330;BME280;76985;51.042;13.978;2024-03-07T07:13:06;99806.50;;;2.53;83.50
86330;BME280;76985;51.042;13.978;2024-03-07T07:15:33;99807.00;;;2.57;84.53
86330;BME280;76985;51.042;13.978;2024-03-07T07:18:00;99801.59;;;2.50;84.03
86330;BME280;76985;51.042;13.978;2024-03-07T07:20:28;99808.03;;;2.64;83.67
86330;BME280;76985;51.042;13.978;2024-03-07T07:22:54;99794.56;;;2.68;84.16
86330;BME280;76985;51.042;13.978;2024-03-07T07:25:20;99807.88;;;2.83;83.46
86330;BME280;76985;51.042;13.978;2024-03-07T07:27:49;99812.06;;;3.02;81.79
86330;BME280;76985;51.042;13.978;2024-03-07T07:30:17;99794.44;;;3.22;82.11
86330;BME280;76985;51.042;13.978;2024-03-07T07:32:45;99808.44;;;3.47;80.45
86330;BME280;76985;51.042;13.978;2024-03-07T07:35:11;99815.31;;;3.56;80.13
86330;BME280;76985;51.042;13.978;2024-03-07T07:37:41;99812.25;;;3.69;78.64
86330;BME280;76985;51.042;13.978;2024-03-07T07:40:12;99806.13;;;3.78;77.78
86330;BME280;76985;51.042;13.978;2024-03-07T07:42:48;99817.59;;;4.02;77.72
86330;BME280;76985;51.042;13.978;2024-03-07T07:45:16;99795.09;;;4.01;78.10
86330;BME280;76985;51.042;13.978;2024-03-07T07:47:46;99818.84;;;4.40;77.55
86330;BME280;76985;51.042;13.978;2024-03-07T07:50:18;99804.81;;;4.49;74.94
86330;BME280;76985;51.042;13.978;2024-03-07T07:52:55;99798.59;;;4.58;73.47
86330;BME280;76985;51.042;13.978;2024-03-07T07:55:23;99812.47;;;5.08;75.02
86330;BME280;76985;51.042;13.978;2024-03-07T07:57:57;99805.56;;;5.31;70.89
86330;BME280;76985;51.042;13.978;2024-03-07T08:00:25;99812.50;;;5.55;69.90
86330;BME280;76985;51.042;13.978;2024-03-07T08:03:04;99801.19;;;5.63;70.73
86330;BME280;76985;51.042;13.978;2024-03-07T08:05:36;99810.09;;;6.24;69.87
86330;BME280;76985;51.042;13.978;2024-03-07T08:08:07;99805.97;;;6.53;68.76
86330;BME280;76985;51.042;13.978;2024-03-07T08:10:35;99809.13;;;6.48;65.15
86330;BME280;76985;51.042;13.978;2024-03-07T08:13:03;99811.88;;;6.92;64.60
86330;BME280;76985;51.042;13.978;2024-03-07T08:15:31;99817.84;;;6.86;63.43
86330;BME280;76985;51.042;13.978;2024-03-07T08:17:58;99818.22;;;6.98;62.18
86330;BME280;76985;51.042;13.978;2024-03-07T08:20:26;99811.63;;;7.17;62.41
86330;BME280;76985;51.042;13.978;2024-03-07T08:22:54;99812.66;;;7.16;62.51
86330;BME280;76985;51.042;13.978;2024-03-07T08:25:22;99820.53;;;7.45;62.54
86330;BME280;76985;51.042;13.978;2024-03-07T08:27:50;99835.09;;;7.33;61.88
86330;BME280;76985;51.042;13.978;2024-03-07T08:30:17;99830.84;;;7.62;61.82
86330;BME280;76985;51.042;13.978;2024-03-07T08:32:48;99812.19;;;7.42;62.32
86330;BME280;76985;51.042;13.978;2024-03-07T08:35:15;99826.97;;;7.28;62.41
86330;BME280;76985;51.042;13.978;2024-03-07T08:37:43;99814.34;;;6.71;62.66
86330;BME280;76985;51.042;13.978;2024-03-07T08:40:15;99812.53;;;6.26;66.15
86330;BME280;76985;51.042;13.978;2024-03-07T08:42:48;99817.81;;;5.86;66.25
86330;BME280;76985;51.042;13.978;2024-03-07T08:45:16;99818.34;;;5.73;68.03
86330;BME280;76985;51.042;13.978;2024-03-07T08:47:46;99811.69;;;5.55;68.02
86330;BME280;76985;51.042;13.978;2024-03-07T08:50:13;99811.03;;;5.61;69.50
86330;BME280;76985;51.042;13.978;2024-03-07T08:52:40;99810.72;;;5.56;69.52
86330;BME280;76985;51.042;13.978;2024-03-07T08:55:07;99806.16;;;5.89;68.43
86330;BME280;76985;51.042;13.978;2024-03-07T08:57:38;99809.34;;;6.15;66.83
86330;BME280;76985;51.042;13.978;2024-03-07T09:00:06;99810.00;;;6.40;66.54
86330;BME280;76985;51.042;13.978;2024-03-07T09:02:38;99815.63;;;6.75;65.11
86330;BME280;76985;51.042;13.978;2024-03-07T09:05:05;99810.63;;;6.42;62.91
86330;BME280;76985;51.042;13.978;2024-03-07T09:07:32;99806.72;;;6.15;64.43
86330;BME280;76985;51.042;13.978;2024-03-07T09:09:58;99806.28;;;6.04;66.16
86330;BME280;76985;51.042;13.978;2024-03-07T09:12:24;99808.47;;;6.23;67.51
86330;BME280;76985;51.042;13.978;2024-03-07T09:14:51;99805.38;;;6.65;64.22
86330;BME280;76985;51.042;13.978;2024-03-07T09:17:24;99793.88;;;6.52;61.63
86330;BME280;76985;51.042;13.978;2024-03-07T09:19:50;99805.16;;;6.29;63.38
86330;BME280;76985;51.042;13.978;2024-03-07T09:22:16;99813.88;;;6.21;62.23
86330;BME280;76985;51.042;13.978;2024-03-07T09:24:43;99810.09;;;6.70;60.23
86330;BME280;76985;51.042;13.978;2024-03-07T09:27:09;99796.25;;;6.61;60.07
86330;BME280;76985;51.042;13.978;2024-03-07T09:29:35;99793.63;;;6.61;61.39
86330;BME280;76985;51.042;13.978;2024-03-07T09:32:01;99796.34;;;6.22;61.04
86330;BME280;76985;51.042;13.978;2024-03-07T09:34:28;99789.09;;;6.32;62.46
86330;BME280;76985;51.042;13.978;2024-03-07T09:36:56;99788.47;;;6.22;61.67
86330;BME280;76985;51.042;13.978;2024-03-07T09:39:23;99808.53;;;6.15;63.32
86330;BME280;76985;51.042;13.978;2024-03-07T09:41:49;99798.13;;;5.98;62.48
86330;BME280;76985;51.042;13.978;2024-03-07T09:44:18;99796.06;;;6.17;62.55
86330;BME280;76985;51.042;13.978;2024-03-07T09:46:50;99787.03;;;6.19;65.22
86330;BME280;76985;51.042;13.978;2024-03-07T09:49:17;99789.38;;;6.14;62.62
86330;BME280;76985;51.042;13.978;2024-03-07T09:51:47;99791.19;;;6.14;63.84
86330;BME280;76985;51.042;13.978;2024-03-07T09:54:18;99807.38;;;6.09;62.82
86330;BME280;76985;51.042;13.978;2024-03-07T09:56:45;99788.75;;;6.04;63.73
86330;BME280;76985;51.042;13.978;2024-03-07T09:59:12;99793.47;;;6.09;61.82
86330;BME280;76985;51.042;13.978;2024-03-07T10:01:40;99788.91;;;6.11;62.06
86330;BME280;76985;51.042;13.978;2024-03-07T10:04:12;99792.75;;;5.92;61.43
86330;BME280;76985;51.042;13.978;2024-03-07T10:06:41;99791.09;;;5.91;63.76
86330;BME280;76985;51.042;13.978;2024-03-07T10:09:07;99796.66;;;5.88;63.75
86330;BME280;76985;51.042;13.978;2024-03-07T10:11:33;99801.28;;;5.86;63.63
86330;BME280;76985;51.042;13.978;2024-03-07T10:14:00;99795.38;;;5.84;64.10
86330;BME280;76985;51.042;13.978;2024-03-07T10:16:31;99803.06;;;5.46;64.44
86330;BME280;76985;51.042;13.978;2024-03-07T10:18:59;99799.06;;;5.19;65.71
86330;BME280;76985;51.042;13.978;2024-03-07T10:21:27;99809.34;;;5.20;67.48
86330;BME280;76985;51.042;13.978;2024-03-07T10:24:07;99817.34;;;5.35;67.85
86330;BME280;76985;51.042;13.978;2024-03-07T10:26:37;99813.41;;;5.31;66.01
86330;BME280;76985;51.042;13.978;2024-03-07T10:29:04;99815.34;;;5.37;66.60
86330;BME280;76985;51.042;13.978;2024-03-07T10:31:31;99815.31;;;5.45;66.02
86330;BME280;76985;51.042;13.978;2024-03-07T10:34:01;99813.72;;;5.44;66.00
86330;BME280;76985;51.042;13.978;2024-03-07T10:36:29;99808.50;;;5.28;67.27
86330;BME280;76985;51.042;13.978;2024-03-07T10:39:00;99808.34;;;5.21;67.06
86330;BME280;76985;51.042;13.978;2024-03-07T10:41:28;99805.63;;;5.07;66.57
86330;BME280;76985;51.042;13.978;2024-03-07T10:43:57;99814.91;;;5.01;67.03
86330;BME280;76985;51.042;13.978;2024-03-07T10:46:26;99817.41;;;4.94;67.99
86330;BME280;76985;51.042;13.978;2024-03-07T10:48:59;99806.75;;;4.88;67.09
86330;BME280;76985;51.042;13.978;2024-03-07T10:51:40;99821.00;;;4.85;66.40
86330;BME280;76985;51.042;13.978;2024-03-07T10:54:28;99817.41;;;4.70;67.31
86330;BME280;76985;51.042;13.978;2024-03-07T10:57:28;99820.16;;;4.68;67.17
86330;BME280;76985;51.042;13.978;2024-03-07T11:00:03;99825.88;;;4.56;67.42
86330;BME280;76985;51.042;13.978;2024-03-07T11:02:51;99812.34;;;4.52;67.62
86330;BME280;76985;51.042;13.978;2024-03-07T11:05:21;99826.22;;;4.61;68.09
86330;BME280;76985;51.042;13.978;2024-03-07T11:07:52;99818.72;;;4.66;66.41
86330;BME280;76985;51.042;13.978;2024-03-07T11:10:20;99824.91;;;4.57;66.05
86330;BME280;76985;51.042;13.978;2024-03-07T11:12:47;99816.41;;;4.46;65.43
86330;BME280;76985;51.042;13.978;2024-03-07T11:15:18;99813.31;;;4.59;66.20
86330;BME280;76985;51.042;13.978;2024-03-07T11:17:48;99809.06;;;4.58;65.85
86330;BME280;76985;51.042;13.978;2024-03-07T11:20:22;99811.69;;;4.66;64.44
86330;BME280;76985;51.042;13.978;2024-03-07T11:22:49;99811.69;;;4.74;63.83
86330;BME280;76985;51.042;13.978;2024-03-07T11:25:19;99817.72;;;4.75;62.81
86330;BME280;76985;51.042;13.978;2024-03-07T11:27:58;99810.53;;;4.85;63.93
86330;BME280;76985;51.042;13.978;2024-03-07T11:30:24;99808.56;;;4.87;64.20
86330;BME280;76985;51.042;13.978;2024-03-07T11:32:52;99814.78;;;4.86;62.96
86330;BME280;76985;51.042;13.978;2024-03-07T11:35:35;99806.13;;;4.78;63.07
86330;BME280;76985;51.042;13.978;2024-03-07T11:38:06;99802.53;;;4.70;64.06
86330;BME280;76985;51.042;13.978;2024-03-07T11:40:59;99803.03;;;4.74;64.61
86330;BME280;76985;51.042;13.978;2024-03-07T11:43:27;99785.72;;;4.57;65.70
86330;BME280;76985;51.042;13.978;2024-03-07T11:45:54;99785.22;;;4.53;64.65
86330;BME280;76985;51.042;13.978;2024-03-07T11:48:24;99801.53;;;4.63;63.89
86330;BME280;76985;51.042;13.978;2024-03-07T11:50:51;99791.59;;;4.75;63.22
86330;BME280;76985;51.042;13.978;2024-03-07T11:53:21;99792.25;;;4.85;62.32
86330;BME280;76985;51.042;13.978;2024-03-07T11:55:47;99774.09;;;4.84;62.97
86330;BME280;76985;51.042;13.978;2024-03-07T11:58:37;99774.91;;;4.84;61.25
86330;BME280;76985;51.042;13.978;2024-03-07T12:01:06;99797.78;;;4.90;59.99
86330;BME280;76985;51.042;13.978;2024-03-07T12:03:37;99784.41;;;4.69;61.74
86330;BME280;76985;51.042;13.978;2024-03-07T12:06:04;99773.78;;;4.70;61.18
86330;BME280;76985;51.042;13.978;2024-03-07T12:08:30;99790.44;;;4.78;61.95
86330;BME280;76985;51.042;13.978;2024-03-07T12:10:59;99791.25;;;4.70;62.29
86330;BME280;76985;51.042;13.978;2024-03-07T12:13:25;99790.59;;;4.76;62.45
86330;BME280;76985;51.042;13.978;2024-03-07T12:15:53;99778.19;;;4.70;62.31
86330;BME280;76985;51.042;13.978;2024-03-07T12:18:21;99774.28;;;4.74;62.30
86330;BME280;76985;51.042;13.978;2024-03-07T12:20:49;99781.13;;;4.83;61.35
86330;BME280;76985;51.042;13.978;2024-03-07T12:23:24;99759.91;;;4.78;60.76
86330;BME280;76985;51.042;13.978;2024-03-07T12:26:04;99761.19;;;4.90;60.89
86330;BME280;76985;51.042;13.978;2024-03-07T12:28:30;99766.09;;;4.85;60.44
86330;BME280;76985;51.042;13.978;2024-03-07T12:30:59;99773.59;;;4.96;59.84
86330;BME280;76985;51.042;13.978;2024-03-07T12:33:29;99762.97;;;4.98;59.63
86330;BME280;76985;51.042;13.978;2024-03-07T12:35:57;99761.81;;;4.92;60.18
86330;BME280;76985;51.042;13.978;2024-03-07T12:38:33;99766.22;;;5.00;60.72
86330;BME280;76985;51.042;13.978;2024-03-07T12:41:03;99764.28;;;4.94;60.61
86330;BME280;76985;51.042;13.978;2024-03-07T12:43:32;99769.50;;;5.02;61.43
86330;BME280;76985;51.042;13.978;2024-03-07T12:45:58;99768.22;;;4.98;58.89
86330;BME280;76985;51.042;13.978;2024-03-07T12:48:25;99769.34;;;4.95;58.43
86330;BME280;76985;51.042;13.978;2024-03-07T12:50:52;99770.94;;;5.05;60.08
86330;BME280;76985;51.042;13.978;2024-03-07T12:53:22;99763.75;;;5.15;58.98
86330;BME280;76985;51.042;13.978;2024-03-07T12:55:49;99754.22;;;5.22;60.13
86330;BME280;76985;51.042;13.978;2024-03-07T12:58:18;99767.03;;;5.01;58.04
86330;BME280;76985;51.042;13.978;2024-03-07T13:00:46;99761.50;;;4.95;59.13
86330;BME280;76985;51.042;13.978;2024-03-07T13:03:12;99759.03;;;5.10;58.72
86330;BME280;76985;51.042;13.978;2024-03-07T13:05:40;99764.69;;;5.22;58.68